sensor_id;sensor_type;location;lat;lon;timestamp;P1;durP1;ratioP1;P2;durP2;ratioP2
80776;SDS011;70169;51.262;6.336;2023-06-22T00:00:34;8.03;;;5.70;;
80776;SDS011;70169;51.262;6.336;2023-06-22T00:02:50;7.60;;;6.13;;
80776;SDS011;70169;51.262;6.336;2023-06-22T00:05:05;8.03;;;5.93;;
80776;SDS011;70169;51.262;6.336;2023-06-22T00:07:21;7.00;;;5.35;;
80776;SDS011;70169;51.262;6.336;2023-06-22T00:09:36;7.15;;;5.95;;
80776;SDS011;70169;51.262;6.336;2023-06-22T00:11:52;7.38;;;5.97;;
80776;SDS011;70169;51.262;6.336;2023-06-22T00:14:07;7.17;;;5.40;;
80776;SDS011;70169;51.262;6.336;2023-06-22T00:16:22;8.47;;;5.70;;
80776;SDS011;70169;51.262;6.336;2023-06-22T00:18:37;8.10;;;6.13;;
80776;SDS011;70169;51.262;6.336;2023-06-22T00:20:54;8.27;;;6.20;;
80776;SDS011;70169;51.262;6.336;2023-06-22T00:23:12;8.27;;;6.72;;
80776;SDS011;70169;51.262;6.336;2023-06-22T00:25:30;8.75;;;6.20;;
80776;SDS011;70169;51.262;6.336;2023-06-22T00:27:46;8.40;;;6.90;;
80776;SDS011;70169;51.262;6.336;2023-06-22T00:30:01;9.27;;;7.23;;
80776;SDS011;70169;51.262;6.336;2023-06-22T00:32:17;9.98;;;7.88;;
80776;SDS011;70169;51.262;6.336;2023-06-22T00:34:33;9.35;;;7.70;;
80776;SDS011;70169;51.262;6.336;2023-06-22T00:36:48;11.17;;;7.63;;
80776;SDS011;70169;51.262;6.336;2023-06-22T00:39:06;9.88;;;7.22;;
80776;SDS011;70169;51.262;6.336;2023-06-22T00:41:22;10.45;;;7.55;;
80776;SDS011;70169;51.262;6.336;2023-06-22T00:43:38;10.20;;;8.23;;
80776;SDS011;70169;51.262;6.336;2023-06-22T00:45:55;10.13;;;8.17;;
80776;SDS011;70169;51.262;6.336;2023-06-22T00:48:11;10.13;;;7.50;;
80776;SDS011;70169;51.262;6.336;2023-06-22T00:50:29;9.10;;;6.90;;
80776;SDS011;70169;51.262;6.336;2023-06-22T00:52:54;10.25;;;7.93;;
80776;SDS011;70169;51.262;6.336;2023-06-22T00:55:14;8.85;;;6.88;;
80776;SDS011;70169;51.262;6.336;2023-06-22T00:57:32;10.48;;;8.25;;
80776;SDS011;70169;51.262;6.336;2023-06-22T00:59:48;9.35;;;7.30;;
80776;SDS011;70169;51.262;6.336;2023-06-22T01:02:03;8.52;;;6.60;;
80776;SDS011;70169;51.262;6.336;2023-06-22T01:04:19;8.50;;;6.70;;
80776;SDS011;70169;51.262;6.336;2023-06-22T01:06:35;9.17;;;6.87;;
80776;SDS011;70169;51.262;6.336;2023-06-22T01:09:18;10.38;;;7.68;;
80776;SDS011;70169;51.262;6.336;2023-06-22T01:11:37;8.85;;;7.20;;
80776;SDS011;70169;51.262;6.336;2023-06-22T01:14:07;9.02;;;6.80;;
80776;SDS011;70169;51.262;6.336;2023-06-22T01:16:31;8.80;;;6.63;;
80776;SDS011;70169;51.262;6.336;2023-06-22T01:18:47;10.02;;;7.05;;
80776;SDS011;70169;51.262;6.336;2023-06-22T01:21:07;8.15;;;6.57;;
80776;SDS011;70169;51.262;6.336;2023-06-22T01:23:27;9.00;;;7.20;;
80776;SDS011;70169;51.262;6.336;2023-06-22T01:26:09;8.05;;;6.60;;
80776;SDS011;70169;51.262;6.336;2023-06-22T01:28:45;8.57;;;6.80;;
80776;SDS011;70169;51.262;6.336;2023-06-22T01:31:01;8.43;;;6.28;;
80776;SDS011;70169;51.262;6.336;2023-06-22T01:33:20;9.27;;;6.93;;
80776;SDS011;70169;51.262;6.336;2023-06-22T01:35:36;8.48;;;6.70;;
80776;SDS011;70169;51.262;6.336;2023-06-22T01:37:52;9.93;;;7.40;;
80776;SDS011;70169;51.262;6.336;2023-06-22T01:40:08;8.40;;;6.53;;
80776;SDS011;70169;51.262;6.336;2023-06-22T01:42:24;10.07;;;7.72;;
80776;SDS011;70169;51.262;6.336;2023-06-22T01:44:41;9.35;;;7.63;;
80776;SDS011;70169;51.262;6.336;2023-06-22T01:46:56;10.63;;;7.87;;
80776;SDS011;70169;51.262;6.336;2023-06-22T01:49:12;10.25;;;8.15;;
80776;SDS011;70169;51.262;6.336;2023-06-22T01:51:27;10.23;;;9.00;;
80776;SDS011;70169;51.262;6.336;2023-06-22T01:53:43;12.07;;;9.33;;
80776;SDS011;70169;51.262;6.336;2023-06-22T01:55:58;10.50;;;8.47;;
80776;SDS011;70169;51.262;6.336;2023-06-22T01:58:13;10.90;;;8.70;;
80776;SDS011;70169;51.262;6.336;2023-06-22T02:00:31;11.77;;;9.15;;
80776;SDS011;70169;51.262;6.336;2023-06-22T02:02:59;9.90;;;7.80;;
80776;SDS011;70169;51.262;6.336;2023-06-22T02:05:18;9.48;;;7.88;;
80776;SDS011;70169;51.262;6.336;2023-06-22T02:07:36;10.48;;;8.95;;
80776;SDS011;70169;51.262;6.336;2023-06-22T02:10:01;12.10;;;9.50;;
80776;SDS011;70169;51.262;6.336;2023-06-22T02:12:23;13.48;;;9.95;;
80776;SDS011;70169;51.262;6.336;2023-06-22T02:14:42;11.18;;;9.00;;
80776;SDS011;70169;51.262;6.336;2023-06-22T02:16:58;11.57;;;9.13;;
80776;SDS011;70169;51.262;6.336;2023-06-22T02:19:16;12.90;;;10.07;;
80776;SDS011;70169;51.262;6.336;2023-06-22T02:21:33;11.07;;;8.63;;
80776;SDS011;70169;51.262;6.336;2023-06-22T02:23:49;9.35;;;7.63;;
80776;SDS011;70169;51.262;6.336;2023-06-22T02:26:04;9.97;;;7.60;;
80776;SDS011;70169;51.262;6.336;2023-06-22T02:28:19;10.07;;;8.23;;
80776;SDS011;70169;51.262;6.336;2023-06-22T02:30:35;11.15;;;9.10;;
80776;SDS011;70169;51.262;6.336;2023-06-22T02:32:50;10.43;;;9.32;;
80776;SDS011;70169;51.262;6.336;2023-06-22T02:35:13;10.63;;;8.55;;
80776;SDS011;70169;51.262;6.336;2023-06-22T02:37:28;12.10;;;9.23;;
80776;SDS011;70169;51.262;6.336;2023-06-22T02:39:44;11.07;;;8.60;;
80776;SDS011;70169;51.262;6.336;2023-06-22T02:41:59;11.00;;;9.17;;
80776;SDS011;70169;51.262;6.336;2023-06-22T02:44:15;12.27;;;8.60;;
80776;SDS011;70169;51.262;6.336;2023-06-22T02:46:31;9.85;;;7.90;;
80776;SDS011;70169;51.262;6.336;2023-06-22T02:48:46;9.47;;;8.20;;
80776;SDS011;70169;51.262;6.336;2023-06-22T02:51:01;11.90;;;9.10;;
80776;SDS011;70169;51.262;6.336;2023-06-22T02:53:17;10.73;;;8.43;;
80776;SDS011;70169;51.262;6.336;2023-06-22T02:55:32;10.43;;;7.97;;
80776;SDS011;70169;51.262;6.336;2023-06-22T02:57:47;11.47;;;9.30;;
80776;SDS011;70169;51.262;6.336;2023-06-22T03:00:03;10.57;;;8.40;;
80776;SDS011;70169;51.262;6.336;2023-06-22T03:02:31;10.55;;;7.88;;
80776;SDS011;70169;51.262;6.336;2023-06-22T03:04:46;9.93;;;7.90;;
80776;SDS011;70169;51.262;6.336;2023-06-22T03:07:04;10.00;;;8.10;;
80776;SDS011;70169;51.262;6.336;2023-06-22T03:09:19;9.27;;;8.10;;
80776;SDS011;70169;51.262;6.336;2023-06-22T03:11:35;12.25;;;8.90;;
80776;SDS011;70169;51.262;6.336;2023-06-22T03:13:50;11.93;;;9.17;;
80776;SDS011;70169;51.262;6.336;2023-06-22T03:16:07;13.00;;;10.77;;
80776;SDS011;70169;51.262;6.336;2023-06-22T03:18:22;12.53;;;10.67;;
80776;SDS011;70169;51.262;6.336;2023-06-22T03:20:37;12.95;;;10.90;;
80776;SDS011;70169;51.262;6.336;2023-06-22T03:22:53;12.57;;;10.70;;
80776;SDS011;70169;51.262;6.336;2023-06-22T03:25:08;13.10;;;10.43;;
80776;SDS011;70169;51.262;6.336;2023-06-22T03:29:40;14.80;;;11.47;;
80776;SDS011;70169;51.262;6.336;2023-06-22T03:31:55;14.48;;;11.35;;
80776;SDS011;70169;51.262;6.336;2023-06-22T03:34:11;15.97;;;12.03;;
80776;SDS011;70169;51.262;6.336;2023-06-22T03:36:26;14.33;;;11.43;;
80776;SDS011;70169;51.262;6.336;2023-06-22T03:38:41;13.50;;;11.17;;
80776;SDS011;70169;51.262;6.336;2023-06-22T03:40:57;12.87;;;11.00;;
80776;SDS011;70169;51.262;6.336;2023-06-22T03:43:12;13.48;;;11.07;;
80776;SDS011;70169;51.262;6.336;2023-06-22T03:45:28;14.05;;;11.65;;
80776;SDS011;70169;51.262;6.336;2023-06-22T03:47:43;14.23;;;12.10;;
80776;SDS011;70169;51.262;6.336;2023-06-22T03:49:58;16.97;;;12.33;;
80776;SDS011;70169;51.262;6.336;2023-06-22T03:52:13;15.53;;;12.00;;
80776;SDS011;70169;51.262;6.336;2023-06-22T03:54:29;16.93;;;13.63;;
80776;SDS011;70169;51.262;6.336;2023-06-22T03:56:45;15.40;;;12.68;;
80776;SDS011;70169;51.262;6.336;2023-06-22T03:59:00;15.03;;;12.00;;
80776;SDS011;70169;51.262;6.336;2023-06-22T04:01:15;14.77;;;11.33;;
80776;SDS011;70169;51.262;6.336;2023-06-22T04:03:32;13.32;;;11.20;;
80776;SDS011;70169;51.262;6.336;2023-06-22T04:05:47;11.77;;;10.40;;
80776;SDS011;70169;51.262;6.336;2023-06-22T04:08:03;13.15;;;11.13;;
80776;SDS011;70169;51.262;6.336;2023-06-22T04:10:19;13.10;;;11.40;;
80776;SDS011;70169;51.262;6.336;2023-06-22T04:12:34;14.53;;;11.77;;
80776;SDS011;70169;51.262;6.336;2023-06-22T04:14:49;14.23;;;12.73;;
80776;SDS011;70169;51.262;6.336;2023-06-22T04:17:04;15.23;;;10.87;;
80776;SDS011;70169;51.262;6.336;2023-06-22T04:19:20;15.10;;;11.77;;
80776;SDS011;70169;51.262;6.336;2023-06-22T04:21:35;13.75;;;10.98;;
80776;SDS011;70169;51.262;6.336;2023-06-22T04:23:52;13.00;;;10.25;;
80776;SDS011;70169;51.262;6.336;2023-06-22T04:26:07;13.03;;;10.87;;
80776;SDS011;70169;51.262;6.336;2023-06-22T04:28:23;12.43;;;10.57;;
80776;SDS011;70169;51.262;6.336;2023-06-22T04:30:38;15.00;;;11.83;;
80776;SDS011;70169;51.262;6.336;2023-06-22T04:33:02;14.70;;;12.70;;
80776;SDS011;70169;51.262;6.336;2023-06-22T04:37:33;16.33;;;13.13;;
80776;SDS011;70169;51.262;6.336;2023-06-22T04:39:49;15.63;;;12.80;;
80776;SDS011;70169;51.262;6.336;2023-06-22T04:42:04;14.55;;;11.90;;
80776;SDS011;70169;51.262;6.336;2023-06-22T04:44:19;13.93;;;12.05;;
80776;SDS011;70169;51.262;6.336;2023-06-22T04:46:41;18.00;;;12.48;;
80776;SDS011;70169;51.262;6.336;2023-06-22T04:48:57;14.87;;;11.50;;
80776;SDS011;70169;51.262;6.336;2023-06-22T04:51:12;14.23;;;11.93;;
80776;SDS011;70169;51.262;6.336;2023-06-22T04:53:27;12.57;;;11.07;;
80776;SDS011;70169;51.262;6.336;2023-06-22T04:55:44;12.68;;;10.38;;
80776;SDS011;70169;51.262;6.336;2023-06-22T04:58:00;13.15;;;10.77;;
80776;SDS011;70169;51.262;6.336;2023-06-22T05:00:19;12.98;;;10.98;;
80776;SDS011;70169;51.262;6.336;2023-06-22T05:02:38;15.00;;;11.40;;
80776;SDS011;70169;51.262;6.336;2023-06-22T05:04:54;14.07;;;10.45;;
80776;SDS011;70169;51.262;6.336;2023-06-22T05:07:11;12.50;;;10.80;;
80776;SDS011;70169;51.262;6.336;2023-06-22T05:09:27;14.57;;;12.73;;
80776;SDS011;70169;51.262;6.336;2023-06-22T05:11:43;16.05;;;13.40;;
80776;SDS011;70169;51.262;6.336;2023-06-22T05:13:59;16.00;;;12.70;;
80776;SDS011;70169;51.262;6.336;2023-06-22T05:16:14;16.53;;;12.77;;
80776;SDS011;70169;51.262;6.336;2023-06-22T05:18:30;16.83;;;13.30;;
80776;SDS011;70169;51.262;6.336;2023-06-22T05:20:46;15.43;;;12.88;;
80776;SDS011;70169;51.262;6.336;2023-06-22T05:23:01;16.30;;;11.67;;
80776;SDS011;70169;51.262;6.336;2023-06-22T05:25:16;14.13;;;11.70;;
80776;SDS011;70169;51.262;6.336;2023-06-22T05:27:32;12.10;;;9.80;;
80776;SDS011;70169;51.262;6.336;2023-06-22T05:29:47;12.43;;;10.03;;
80776;SDS011;70169;51.262;6.336;2023-06-22T05:32:03;12.73;;;10.32;;
80776;SDS011;70169;51.262;6.336;2023-06-22T05:34:18;13.88;;;10.52;;
80776;SDS011;70169;51.262;6.336;2023-06-22T05:36:34;11.70;;;9.30;;
80776;SDS011;70169;51.262;6.336;2023-06-22T05:38:49;12.07;;;9.40;;
80776;SDS011;70169;51.262;6.336;2023-06-22T05:41:04;11.67;;;9.43;;
80776;SDS011;70169;51.262;6.336;2023-06-22T05:43:20;12.02;;;9.90;;
80776;SDS011;70169;51.262;6.336;2023-06-22T05:45:35;11.40;;;9.63;;
80776;SDS011;70169;51.262;6.336;2023-06-22T05:47:50;11.33;;;9.20;;
80776;SDS011;70169;51.262;6.336;2023-06-22T05:50:06;12.23;;;10.43;;
80776;SDS011;70169;51.262;6.336;2023-06-22T05:52:23;10.63;;;8.75;;
80776;SDS011;70169;51.262;6.336;2023-06-22T05:54:38;13.17;;;10.53;;
80776;SDS011;70169;51.262;6.336;2023-06-22T05:56:54;13.65;;;10.52;;
80776;SDS011;70169;51.262;6.336;2023-06-22T05:59:09;12.25;;;10.55;;
80776;SDS011;70169;51.262;6.336;2023-06-22T06:01:24;12.63;;;9.87;;
80776;SDS011;70169;51.262;6.336;2023-06-22T06:03:41;11.02;;;9.32;;
80776;SDS011;70169;51.262;6.336;2023-06-22T06:05:56;12.85;;;11.27;;
80776;SDS011;70169;51.262;6.336;2023-06-22T06:08:11;11.27;;;9.77;;
80776;SDS011;70169;51.262;6.336;2023-06-22T06:10:27;11.25;;;9.60;;
80776;SDS011;70169;51.262;6.336;2023-06-22T06:12:44;13.02;;;10.55;;
80776;SDS011;70169;51.262;6.336;2023-06-22T06:14:59;12.30;;;9.90;;
80776;SDS011;70169;51.262;6.336;2023-06-22T06:17:15;11.27;;;9.50;;
80776;SDS011;70169;51.262;6.336;2023-06-22T06:19:30;14.73;;;10.73;;
80776;SDS011;70169;51.262;6.336;2023-06-22T06:21:45;13.33;;;11.17;;
80776;SDS011;70169;51.262;6.336;2023-06-22T06:24:01;15.73;;;11.77;;
80776;SDS011;70169;51.262;6.336;2023-06-22T06:26:17;12.63;;;10.63;;
80776;SDS011;70169;51.262;6.336;2023-06-22T06:28:32;17.17;;;14.40;;
80776;SDS011;70169;51.262;6.336;2023-06-22T06:30:48;14.70;;;12.95;;
80776;SDS011;70169;51.262;6.336;2023-06-22T06:33:04;14.63;;;12.40;;
80776;SDS011;70169;51.262;6.336;2023-06-22T06:37:53;15.27;;;11.93;;
80776;SDS011;70169;51.262;6.336;2023-06-22T06:40:09;15.47;;;13.00;;
80776;SDS011;70169;51.262;6.336;2023-06-22T06:42:25;14.48;;;12.35;;
80776;SDS011;70169;51.262;6.336;2023-06-22T06:44:41;17.43;;;13.57;;
80776;SDS011;70169;51.262;6.336;2023-06-22T06:46:56;14.23;;;12.02;;
80776;SDS011;70169;51.262;6.336;2023-06-22T06:49:12;13.87;;;11.60;;
80776;SDS011;70169;51.262;6.336;2023-06-22T06:51:28;15.60;;;12.40;;
80776;SDS011;70169;51.262;6.336;2023-06-22T06:53:43;14.40;;;12.87;;
80776;SDS011;70169;51.262;6.336;2023-06-22T06:55:58;16.70;;;13.70;;
80776;SDS011;70169;51.262;6.336;2023-06-22T06:58:14;17.10;;;13.63;;
80776;SDS011;70169;51.262;6.336;2023-06-22T07:00:29;16.20;;;13.82;;
80776;SDS011;70169;51.262;6.336;2023-06-22T07:02:45;17.50;;;13.73;;
80776;SDS011;70169;51.262;6.336;2023-06-22T07:05:03;16.38;;;14.00;;
80776;SDS011;70169;51.262;6.336;2023-06-22T07:07:19;17.70;;;14.45;;
80776;SDS011;70169;51.262;6.336;2023-06-22T07:09:34;18.63;;;14.33;;
80776;SDS011;70169;51.262;6.336;2023-06-22T07:11:49;15.33;;;12.80;;
80776;SDS011;70169;51.262;6.336;2023-06-22T07:14:05;14.67;;;12.07;;
80776;SDS011;70169;51.262;6.336;2023-06-22T07:16:20;15.53;;;13.27;;
80776;SDS011;70169;51.262;6.336;2023-06-22T07:18:36;16.65;;;12.57;;
80776;SDS011;70169;51.262;6.336;2023-06-22T07:20:51;19.10;;;14.93;;
80776;SDS011;70169;51.262;6.336;2023-06-22T07:23:06;18.97;;;13.87;;
80776;SDS011;70169;51.262;6.336;2023-06-22T07:25:22;14.67;;;12.47;;
80776;SDS011;70169;51.262;6.336;2023-06-22T07:28:19;19.00;;;14.03;;
80776;SDS011;70169;51.262;6.336;2023-06-22T07:32:32;17.95;;;15.00;;
80776;SDS011;70169;51.262;6.336;2023-06-22T07:34:48;18.00;;;14.90;;
80776;SDS011;70169;51.262;6.336;2023-06-22T07:37:03;16.40;;;14.20;;
80776;SDS011;70169;51.262;6.336;2023-06-22T07:39:19;16.50;;;13.73;;
80776;SDS011;70169;51.262;6.336;2023-06-22T07:41:40;16.55;;;13.93;;
80776;SDS011;70169;51.262;6.336;2023-06-22T07:43:55;15.50;;;12.05;;
80776;SDS011;70169;51.262;6.336;2023-06-22T07:46:11;16.87;;;12.07;;
80776;SDS011;70169;51.262;6.336;2023-06-22T07:48:26;16.40;;;13.48;;
80776;SDS011;70169;51.262;6.336;2023-06-22T07:50:41;16.67;;;13.33;;
80776;SDS011;70169;51.262;6.336;2023-06-22T07:52:57;17.58;;;13.90;;
80776;SDS011;70169;51.262;6.336;2023-06-22T07:55:12;16.80;;;13.50;;
80776;SDS011;70169;51.262;6.336;2023-06-22T07:57:28;14.63;;;12.00;;
80776;SDS011;70169;51.262;6.336;2023-06-22T08:02:06;16.83;;;14.87;;
80776;SDS011;70169;51.262;6.336;2023-06-22T08:04:23;18.83;;;14.77;;
80776;SDS011;70169;51.262;6.336;2023-06-22T08:06:38;20.30;;;14.37;;
80776;SDS011;70169;51.262;6.336;2023-06-22T08:08:54;16.20;;;13.37;;
80776;SDS011;70169;51.262;6.336;2023-06-22T08:11:11;19.90;;;14.80;;
80776;SDS011;70169;51.262;6.336;2023-06-22T08:13:27;18.77;;;14.77;;
80776;SDS011;70169;51.262;6.336;2023-06-22T08:15:42;17.30;;;14.37;;
80776;SDS011;70169;51.262;6.336;2023-06-22T08:17:57;17.10;;;13.40;;
80776;SDS011;70169;51.262;6.336;2023-06-22T08:20:14;18.33;;;14.23;;
80776;SDS011;70169;51.262;6.336;2023-06-22T08:22:29;15.25;;;12.60;;
80776;SDS011;70169;51.262;6.336;2023-06-22T08:24:45;15.48;;;12.82;;
80776;SDS011;70169;51.262;6.336;2023-06-22T08:27:00;17.87;;;14.03;;
80776;SDS011;70169;51.262;6.336;2023-06-22T08:29:16;20.55;;;13.93;;
80776;SDS011;70169;51.262;6.336;2023-06-22T08:31:31;16.77;;;12.57;;
80776;SDS011;70169;51.262;6.336;2023-06-22T08:33:49;15.07;;;12.40;;
80776;SDS011;70169;51.262;6.336;2023-06-22T08:36:05;18.33;;;12.40;;
80776;SDS011;70169;51.262;6.336;2023-06-22T08:38:21;17.75;;;13.73;;
80776;SDS011;70169;51.262;6.336;2023-06-22T08:40:36;13.77;;;11.57;;
80776;SDS011;70169;51.262;6.336;2023-06-22T08:42:51;14.53;;;11.67;;
80776;SDS011;70169;51.262;6.336;2023-06-22T08:45:07;14.07;;;10.80;;
80776;SDS011;70169;51.262;6.336;2023-06-22T08:47:23;12.13;;;10.45;;
80776;SDS011;70169;51.262;6.336;2023-06-22T08:49:38;12.73;;;9.75;;
80776;SDS011;70169;51.262;6.336;2023-06-22T08:51:53;12.27;;;10.87;;
80776;SDS011;70169;51.262;6.336;2023-06-22T08:54:11;11.80;;;9.48;;
80776;SDS011;70169;51.262;6.336;2023-06-22T08:56:26;14.03;;;10.87;;
80776;SDS011;70169;51.262;6.336;2023-06-22T08:58:41;14.73;;;12.60;;
80776;SDS011;70169;51.262;6.336;2023-06-22T09:00:56;15.07;;;11.97;;
80776;SDS011;70169;51.262;6.336;2023-06-22T09:03:14;14.68;;;11.65;;
80776;SDS011;70169;51.262;6.336;2023-06-22T09:05:30;12.95;;;11.40;;
80776;SDS011;70169;51.262;6.336;2023-06-22T09:07:45;13.97;;;12.07;;
80776;SDS011;70169;51.262;6.336;2023-06-22T09:10:01;16.33;;;13.18;;
80776;SDS011;70169;51.262;6.336;2023-06-22T09:12:18;16.30;;;14.25;;
80776;SDS011;70169;51.262;6.336;2023-06-22T09:14:35;13.45;;;11.45;;
80776;SDS011;70169;51.262;6.336;2023-06-22T09:16:50;13.17;;;9.90;;
80776;SDS011;70169;51.262;6.336;2023-06-22T09:19:06;14.77;;;11.40;;
80776;SDS011;70169;51.262;6.336;2023-06-22T09:21:21;18.10;;;13.37;;
80776;SDS011;70169;51.262;6.336;2023-06-22T09:23:38;16.45;;;12.93;;
80776;SDS011;70169;51.262;6.336;2023-06-22T09:25:53;14.83;;;11.97;;
80776;SDS011;70169;51.262;6.336;2023-06-22T09:28:08;16.90;;;12.23;;
80776;SDS011;70169;51.262;6.336;2023-06-22T09:30:24;15.83;;;11.70;;
80776;SDS011;70169;51.262;6.336;2023-06-22T09:32:39;15.83;;;11.97;;
80776;SDS011;70169;51.262;6.336;2023-06-22T09:34:54;18.80;;;14.45;;
80776;SDS011;70169;51.262;6.336;2023-06-22T09:37:10;15.83;;;12.67;;
80776;SDS011;70169;51.262;6.336;2023-06-22T09:39:25;16.30;;;12.35;;
80776;SDS011;70169;51.262;6.336;2023-06-22T09:41:40;15.67;;;13.53;;
80776;SDS011;70169;51.262;6.336;2023-06-22T09:43:56;17.77;;;11.93;;
80776;SDS011;70169;51.262;6.336;2023-06-22T09:46:11;13.37;;;10.83;;
80776;SDS011;70169;51.262;6.336;2023-06-22T09:48:27;16.15;;;13.15;;
80776;SDS011;70169;51.262;6.336;2023-06-22T09:50:43;16.13;;;12.52;;
80776;SDS011;70169;51.262;6.336;2023-06-22T09:52:58;17.10;;;13.48;;
80776;SDS011;70169;51.262;6.336;2023-06-22T09:55:14;15.77;;;13.03;;
80776;SDS011;70169;51.262;6.336;2023-06-22T09:57:30;17.52;;;14.57;;
80776;SDS011;70169;51.262;6.336;2023-06-22T09:59:46;15.98;;;12.57;;
80776;SDS011;70169;51.262;6.336;2023-06-22T10:02:02;18.70;;;14.37;;
80776;SDS011;70169;51.262;6.336;2023-06-22T10:04:17;19.17;;;15.30;;
80776;SDS011;70169;51.262;6.336;2023-06-22T10:06:32;17.33;;;14.47;;
80776;SDS011;70169;51.262;6.336;2023-06-22T10:08:47;18.70;;;16.13;;
80776;SDS011;70169;51.262;6.336;2023-06-22T10:11:03;15.85;;;13.80;;
80776;SDS011;70169;51.262;6.336;2023-06-22T10:13:19;17.40;;;14.65;;
80776;SDS011;70169;51.262;6.336;2023-06-22T10:15:35;17.85;;;15.02;;
80776;SDS011;70169;51.262;6.336;2023-06-22T10:17:50;15.98;;;13.85;;
80776;SDS011;70169;51.262;6.336;2023-06-22T10:20:06;16.50;;;13.77;;
80776;SDS011;70169;51.262;6.336;2023-06-22T10:22:28;20.00;;;15.68;;
80776;SDS011;70169;51.262;6.336;2023-06-22T10:24:43;21.20;;;16.87;;
80776;SDS011;70169;51.262;6.336;2023-06-22T10:26:59;18.67;;;16.27;;
80776;SDS011;70169;51.262;6.336;2023-06-22T10:29:14;15.63;;;13.30;;
80776;SDS011;70169;51.262;6.336;2023-06-22T10:31:30;14.60;;;11.67;;
80776;SDS011;70169;51.262;6.336;2023-06-22T10:33:45;19.70;;;15.07;;
80776;SDS011;70169;51.262;6.336;2023-06-22T10:36:00;16.97;;;13.60;;
80776;SDS011;70169;51.262;6.336;2023-06-22T10:38:16;15.27;;;11.97;;
80776;SDS011;70169;51.262;6.336;2023-06-22T10:40:31;13.13;;;10.53;;
80776;SDS011;70169;51.262;6.336;2023-06-22T10:42:47;19.65;;;15.90;;
80776;SDS011;70169;51.262;6.336;2023-06-22T10:45:02;15.30;;;13.23;;
80776;SDS011;70169;51.262;6.336;2023-06-22T10:47:18;14.77;;;12.80;;
80776;SDS011;70169;51.262;6.336;2023-06-22T10:49:33;15.37;;;12.43;;
80776;SDS011;70169;51.262;6.336;2023-06-22T10:51:48;13.70;;;10.83;;
80776;SDS011;70169;51.262;6.336;2023-06-22T10:54:04;15.83;;;13.67;;
80776;SDS011;70169;51.262;6.336;2023-06-22T10:56:19;14.95;;;12.88;;
80776;SDS011;70169;51.262;6.336;2023-06-22T10:58:35;16.02;;;13.52;;
80776;SDS011;70169;51.262;6.336;2023-06-22T11:00:50;15.93;;;13.70;;
80776;SDS011;70169;51.262;6.336;2023-06-22T11:03:05;19.33;;;16.50;;
80776;SDS011;70169;51.262;6.336;2023-06-22T11:05:21;16.70;;;13.88;;
80776;SDS011;70169;51.262;6.336;2023-06-22T11:07:36;15.27;;;12.60;;
80776;SDS011;70169;51.262;6.336;2023-06-22T11:09:53;15.55;;;12.23;;
80776;SDS011;70169;51.262;6.336;2023-06-22T11:12:08;16.43;;;13.70;;
80776;SDS011;70169;51.262;6.336;2023-06-22T11:14:24;17.00;;;14.18;;
80776;SDS011;70169;51.262;6.336;2023-06-22T11:16:41;21.50;;;17.90;;
80776;SDS011;70169;51.262;6.336;2023-06-22T11:18:58;19.08;;;16.17;;
80776;SDS011;70169;51.262;6.336;2023-06-22T11:21:13;19.97;;;17.30;;
80776;SDS011;70169;51.262;6.336;2023-06-22T11:23:29;20.80;;;18.53;;
80776;SDS011;70169;51.262;6.336;2023-06-22T11:25:45;23.00;;;18.95;;
80776;SDS011;70169;51.262;6.336;2023-06-22T11:28:04;25.92;;;21.58;;
80776;SDS011;70169;51.262;6.336;2023-06-22T11:30:20;23.58;;;19.67;;
80776;SDS011;70169;51.262;6.336;2023-06-22T11:32:35;22.45;;;20.15;;
80776;SDS011;70169;51.262;6.336;2023-06-22T11:34:50;22.83;;;20.30;;
80776;SDS011;70169;51.262;6.336;2023-06-22T11:37:06;24.03;;;20.53;;
80776;SDS011;70169;51.262;6.336;2023-06-22T11:39:21;25.40;;;22.63;;
80776;SDS011;70169;51.262;6.336;2023-06-22T11:41:36;22.80;;;18.73;;
80776;SDS011;70169;51.262;6.336;2023-06-22T11:43:52;22.50;;;19.03;;
80776;SDS011;70169;51.262;6.336;2023-06-22T11:46:07;24.43;;;19.50;;
80776;SDS011;70169;51.262;6.336;2023-06-22T11:48:23;21.38;;;18.48;;
80776;SDS011;70169;51.262;6.336;2023-06-22T11:52:54;23.30;;;17.60;;
80776;SDS011;70169;51.262;6.336;2023-06-22T11:55:09;22.70;;;18.97;;
80776;SDS011;70169;51.262;6.336;2023-06-22T11:57:25;24.20;;;21.05;;
80776;SDS011;70169;51.262;6.336;2023-06-22T11:59:40;23.97;;;20.17;;
80776;SDS011;70169;51.262;6.336;2023-06-22T12:01:56;23.70;;;19.33;;
80776;SDS011;70169;51.262;6.336;2023-06-22T12:04:13;25.70;;;21.02;;
80776;SDS011;70169;51.262;6.336;2023-06-22T12:06:29;24.95;;;20.48;;
80776;SDS011;70169;51.262;6.336;2023-06-22T12:08:44;22.67;;;18.30;;
80776;SDS011;70169;51.262;6.336;2023-06-22T12:11:00;24.30;;;19.23;;
80776;SDS011;70169;51.262;6.336;2023-06-22T12:13:15;25.70;;;21.20;;
80776;SDS011;70169;51.262;6.336;2023-06-22T12:15:30;28.43;;;22.10;;
80776;SDS011;70169;51.262;6.336;2023-06-22T12:17:46;27.00;;;18.98;;
80776;SDS011;70169;51.262;6.336;2023-06-22T12:20:03;25.83;;;19.90;;
80776;SDS011;70169;51.262;6.336;2023-06-22T12:22:20;26.60;;;23.80;;
80776;SDS011;70169;51.262;6.336;2023-06-22T12:24:35;23.45;;;20.80;;
80776;SDS011;70169;51.262;6.336;2023-06-22T12:26:51;27.93;;;20.67;;
80776;SDS011;70169;51.262;6.336;2023-06-22T12:29:06;22.63;;;19.77;;
80776;SDS011;70169;51.262;6.336;2023-06-22T12:31:21;24.27;;;19.50;;
80776;SDS011;70169;51.262;6.336;2023-06-22T12:33:36;26.33;;;21.60;;
80776;SDS011;70169;51.262;6.336;2023-06-22T12:35:52;26.60;;;21.30;;
80776;SDS011;70169;51.262;6.336;2023-06-22T12:38:07;23.93;;;21.33;;
80776;SDS011;70169;51.262;6.336;2023-06-22T12:42:44;24.58;;;20.40;;
80776;SDS011;70169;51.262;6.336;2023-06-22T12:45:00;29.35;;;26.35;;
80776;SDS011;70169;51.262;6.336;2023-06-22T12:47:15;26.40;;;21.80;;
80776;SDS011;70169;51.262;6.336;2023-06-22T12:49:31;24.70;;;21.23;;
80776;SDS011;70169;51.262;6.336;2023-06-22T12:51:46;21.98;;;18.75;;
80776;SDS011;70169;51.262;6.336;2023-06-22T12:54:01;22.33;;;18.63;;
80776;SDS011;70169;51.262;6.336;2023-06-22T12:56:17;24.42;;;20.25;;
80776;SDS011;70169;51.262;6.336;2023-06-22T12:58:32;29.27;;;24.27;;
80776;SDS011;70169;51.262;6.336;2023-06-22T13:00:48;23.77;;;19.93;;
80776;SDS011;70169;51.262;6.336;2023-06-22T13:03:03;23.05;;;20.05;;
80776;SDS011;70169;51.262;6.336;2023-06-22T13:05:19;24.75;;;21.67;;
80776;SDS011;70169;51.262;6.336;2023-06-22T13:07:34;25.07;;;22.03;;
80776;SDS011;70169;51.262;6.336;2023-06-22T13:09:50;27.10;;;23.47;;
80776;SDS011;70169;51.262;6.336;2023-06-22T13:12:06;26.20;;;22.15;;
80776;SDS011;70169;51.262;6.336;2023-06-22T13:14:22;24.52;;;21.30;;
80776;SDS011;70169;51.262;6.336;2023-06-22T13:16:37;29.93;;;26.30;;
80776;SDS011;70169;51.262;6.336;2023-06-22T13:18:52;28.23;;;24.53;;
80776;SDS011;70169;51.262;6.336;2023-06-22T13:21:08;30.77;;;27.17;;
80776;SDS011;70169;51.262;6.336;2023-06-22T13:23:23;28.87;;;24.23;;
80776;SDS011;70169;51.262;6.336;2023-06-22T13:25:38;26.08;;;22.30;;
80776;SDS011;70169;51.262;6.336;2023-06-22T13:27:54;30.70;;;25.00;;
80776;SDS011;70169;51.262;6.336;2023-06-22T13:30:09;29.40;;;25.97;;
80776;SDS011;70169;51.262;6.336;2023-06-22T13:32:25;27.02;;;22.52;;
80776;SDS011;70169;51.262;6.336;2023-06-22T13:34:40;30.10;;;25.57;;
80776;SDS011;70169;51.262;6.336;2023-06-22T13:36:56;29.03;;;24.53;;